Time;durP1;ratioP1;P1;durP2;ratioP2;P2;SDS_P1;SDS_P2;PMS_P1;PMS_P2;Temp;Humidity;BMP_temperature;BMP_pressure;BME280_temperature;BME280_humidity;BME280_pressure;Samples;Min_cycle;Max_cycle;Signal;HPM_P1;HPM_P2
2022/08/23 00:01:38;;;;;;;;;1.00;1.00;;;;;24.22;51.33;100698.47;5056595;28;45613;-82
2022/08/23 00:04:13;;;;;;;;;0.25;0.25;;;;;24.23;51.21;100703.66;5056172;28;46318;-82
2022/08/23 00:06:40;;;;;;;;;0.50;0.00;;;;;24.21;51.66;100699.50;5056462;28;46339;-83
2022/08/23 00:09:06;;;;;;;;;0.00;0.00;;;;;24.18;51.31;100698.03;5056515;28;45687;-83
2022/08/23 00:11:37;;;;;;;;;0.00;0.00;;;;;24.22;51.15;100701.16;5056456;28;45567;-82
2022/08/23 00:14:09;;;;;;;;;1.00;0.50;;;;;24.22;51.55;100701.16;5055965;28;46781;-81
2022/08/23 00:16:34;;;;;;;;;0.00;0.00;;;;;24.15;51.69;100686.84;5056178;28;46263;-82
2022/08/23 00:19:01;;;;;;;;;0.00;0.00;;;;;24.20;51.27;100692.47;5056025;28;45537;-82
2022/08/23 00:21:28;;;;;;;;;0.00;0.00;;;;;24.17;51.35;100691.03;5055912;28;45535;-82
2022/08/23 00:23:54;;;;;;;;;0.00;0.00;;;;;24.18;51.29;100695.34;5055136;28;46499;-83
2022/08/23 00:26:20;;;;;;;;;0.50;0.00;;;;;24.22;51.47;100690.44;5056344;28;46181;-83
2022/08/23 00:28:48;;;;;;;;;1.00;0.00;;;;;24.23;51.42;100694.78;5055969;28;45704;-80
2022/08/23 00:31:14;;;;;;;;;0.00;0.00;;;;;24.06;51.25;100662.09;5055796;28;45690;-81
2022/08/23 00:33:40;;;;;;;;;0.00;0.00;;;;;24.25;51.69;100684.69;5055558;28;45709;-77
2022/08/23 00:36:05;;;;;;;;;0.00;0.00;;;;;24.25;51.04;100688.19;5055685;28;46409;-80
2022/08/23 00:38:31;;;;;;;;;1.25;0.50;;;;;24.26;51.28;100683.66;5055668;28;45462;-80
2022/08/23 00:40:56;;;;;;;;;0.50;0.25;;;;;24.27;51.43;100684.50;5055995;28;45547;-77
2022/08/23 00:49:28;;;;;;;;;0.50;0.00;;;;;24.25;51.50;100684.69;5055841;28;45601;-78
2022/08/23 00:52:01;;;;;;;;;0.00;0.00;;;;;24.24;51.48;100689.22;5056021;28;45720;-79
2022/08/23 00:54:29;;;;;;;;;0.00;0.00;;;;;24.23;51.56;100678.72;5055898;28;46302;-81
2022/08/23 00:56:57;;;;;;;;;0.75;0.75;;;;;24.23;51.74;100682.22;5057162;28;47393;-84
2022/08/23 00:59:24;;;;;;;;;0.00;0.00;;;;;24.25;51.67;100692.72;5059680;28;45655;-83
2022/08/23 01:01:51;;;;;;;;;0.00;0.00;;;;;24.23;51.99;100690.25;5060292;28;45520;-82
2022/08/23 01:04:17;;;;;;;;;0.25;0.00;;;;;24.25;51.37;100692.72;5059135;28;45635;-82
2022/08/23 01:06:45;;;;;;;;;0.00;0.00;;;;;24.26;51.86;100694.38;5057349;28;45550;-79
2022/08/23 01:09:18;;;;;;;;;0.00;0.00;;;;;24.25;51.86;100696.22;5055038;28;45510;-79
2022/08/23 01:11:53;;;;;;;;;0.00;0.00;;;;;24.24;51.80;100697.25;5054741;28;45583;-80
2022/08/23 01:14:29;;;;;;;;;0.00;0.00;;;;;24.24;52.48;100696.41;5055114;28;46599;-81
2022/08/23 01:16:58;;;;;;;;;0.00;0.00;;;;;24.24;52.02;100699.94;5055240;28;45899;-83
2022/08/23 01:19:28;;;;;;;;;0.00;0.00;;;;;24.12;52.33;100681.91;5037666;28;45574;-80
2022/08/23 01:22:12;;;;;;;;;0.00;0.00;;;;;24.21;52.28;100694.97;5055716;28;45624;-82
2022/08/23 01:24:39;;;;;;;;;0.00;0.00;;;;;24.23;52.06;100695.63;5056269;28;46502;-82
2022/08/23 01:27:05;;;;;;;;;0.25;0.00;;;;;24.17;51.72;100691.03;5037380;28;47176;-81
2022/08/23 01:29:31;;;;;;;;;0.00;0.00;;;;;24.25;52.04;100698.91;5055516;28;45686;-80
2022/08/23 01:31:57;;;;;;;;;0.00;0.00;;;;;24.23;52.18;100702.81;5055044;28;45529;-80
2022/08/23 01:34:27;;;;;;;;;0.50;0.00;;;;;24.20;52.74;100706.69;5054772;28;45687;-82
2022/08/23 01:36:55;;;;;;;;;0.00;0.00;;;;;24.18;52.45;100708.75;5055132;28;45711;-76
2022/08/23 01:39:21;;;;;;;;;0.50;0.50;;;;;23.97;52.32;100676.63;5055187;28;45844;-82
2022/08/23 01:41:46;;;;;;;;;1.00;0.50;;;;;24.09;52.46;100701.03;5054876;28;45721;-79
2022/08/23 01:44:13;;;;;;;;;0.00;0.00;;;;;24.02;52.64;100700.16;5054855;28;46531;-80
2022/08/23 01:46:43;;;;;;;;;1.00;1.00;;;;;24.02;53.08;100700.16;5054720;28;45920;-81
2022/08/23 01:49:08;;;;;;;;;0.00;0.00;;;;;24.01;52.53;100696.66;5054814;28;45518;-81
2022/08/23 01:51:34;;;;;;;;;1.00;1.00;;;;;23.98;53.21;100694.34;5055392;28;45560;-80
2022/08/23 01:53:59;;;;;;;;;1.00;0.50;;;;;23.94;53.03;100689.59;5056788;28;46245;-79
2022/08/23 01:56:25;;;;;;;;;0.00;0.00;;;;;23.86;53.08;100681.72;5057106;28;45593;-83
2022/08/23 01:58:50;;;;;;;;;0.25;0.25;;;;;23.90;53.49;100688.31;5056154;28;45585;-82
2022/08/23 02:01:17;;;;;;;;;0.50;0.00;;;;;23.93;53.40;100696.78;5057903;28;45672;-83
2022/08/23 02:03:44;;;;;;;;;0.00;0.00;;;;;23.93;53.31;100687.91;5056046;28;46540;-82
2022/08/23 02:06:10;;;;;;;;;1.00;1.00;;;;;23.90;52.89;100696.34;5055664;28;46424;-82
2022/08/23 02:11:22;;;;;;;;;0.50;0.50;;;;;23.88;53.68;100709.09;5055964;28;45527;-82
2022/08/23 02:13:49;;;;;;;;;1.00;1.00;;;;;23.75;53.38;100707.16;5055100;28;46235;-81
2022/08/23 02:16:22;;;;;;;;;1.00;1.00;;;;;23.69;53.95;100708.75;5055372;28;46368;-83
2022/08/23 02:18:48;;;;;;;;;0.00;0.00;;;;;23.62;53.65;100707.84;5055015;28;45565;-80
2022/08/23 02:21:13;;;;;;;;;0.00;0.00;;;;;23.58;54.11;100714.59;5055839;28;45898;-80
2022/08/23 02:23:38;;;;;;;;;0.50;0.50;;;;;23.46;54.22;100689.38;5039862;28;48032;-82
2022/08/23 02:26:05;;;;;;;;;0.25;0.25;;;;;23.43;53.74;100690.53;5040394;28;46031;-78
2022/08/23 02:28:31;;;;;;;;;0.00;0.00;;;;;23.51;53.98;100707.50;5058629;28;45498;-79
2022/08/23 02:34:19;;;;;;;;;0.00;0.00;;;;;23.57;54.20;100710.25;5057660;28;46018;-77
2022/08/23 02:36:44;;;;;;;;;0.00;0.00;;;;;23.54;53.93;100705.28;5058090;28;46168;-79
2022/08/23 02:39:10;;;;;;;;;0.75;0.75;;;;;23.58;54.00;100711.09;5064102;28;45643;-77
2022/08/23 02:41:37;;;;;;;;;1.00;1.00;;;;;23.62;54.02;100715.88;5066753;28;45716;-77
2022/08/23 02:44:03;;;;;;;;;1.00;1.00;;;;;23.64;53.93;100705.81;5064756;28;46530;-77
2022/08/23 02:46:29;;;;;;;;;1.00;1.00;;;;;23.65;54.45;100712.78;5063867;28;46071;-78
2022/08/23 02:48:55;;;;;;;;;1.00;0.50;;;;;23.64;54.24;100711.16;5058526;28;45559;-78
2022/08/23 02:51:22;;;;;;;;;1.50;0.50;;;;;23.64;54.18;100705.81;5048147;28;45854;-83
2022/08/23 02:53:47;;;;;;;;;1.25;1.25;;;;;23.65;53.91;100711.97;5073547;28;45655;-80
2022/08/23 02:56:13;;;;;;;;;0.00;0.00;;;;;23.63;54.44;100712.19;5066163;28;46018;-80
2022/08/23 02:58:38;;;;;;;;;1.00;1.00;;;;;23.66;54.41;100713.63;5058720;28;45710;-81
2022/08/23 03:04:26;;;;;;;;;0.50;0.50;;;;;23.57;54.79;100698.72;5057243;28;46177;-81
2022/08/23 03:06:51;;;;;;;;;0.00;0.00;;;;;23.57;54.83;100704.06;5038909;28;46972;-82
2022/08/23 03:09:17;;;;;;;;;0.25;0.00;;;;;23.58;54.89;100711.09;5057323;28;45580;-82
2022/08/23 03:11:45;;;;;;;;;0.50;0.50;;;;;23.52;54.81;100711.84;5057013;28;45817;-81
2022/08/23 03:14:10;;;;;;;;;1.25;0.50;;;;;23.53;54.60;100718.88;5056593;28;47784;-80
2022/08/23 03:16:36;;;;;;;;;2.00;1.00;;;;;23.52;54.57;100722.53;5056694;28;47368;-82
2022/08/23 03:19:02;;;;;;;;;1.00;1.00;;;;;23.51;55.06;100720.88;5056695;28;45633;-79
2022/08/23 03:21:27;;;;;;;;;1.00;1.00;;;;;23.42;55.04;100717.47;5056979;28;45558;-83
2022/08/23 03:23:52;;;;;;;;;1.00;1.00;;;;;23.43;55.17;100724.47;5056469;28;46381;-78
2022/08/23 03:26:19;;;;;;;;;0.00;0.00;;;;;23.40;55.81;100725.69;5056565;28;47084;-79
2022/08/23 03:28:45;;;;;;;;;1.00;1.00;;;;;23.38;55.63;100727.72;5056608;28;45683;-78
2022/08/23 03:34:33;;;;;;;;;1.00;1.00;;;;;23.34;55.79;100722.94;5055696;28;46083;-78
2022/08/23 03:36:58;;;;;;;;;1.50;1.00;;;;;23.34;55.69;100720.25;5056939;28;46034;-78
2022/08/23 03:39:25;;;;;;;;;0.25;0.25;;;;;23.28;55.68;100711.16;5056546;28;45651;-78
2022/08/23 03:41:50;;;;;;;;;1.00;1.00;;;;;23.33;55.60;100710.56;5056177;28;45787;-79
2022/08/23 03:44:15;;;;;;;;;0.25;0.25;;;;;23.31;55.50;100709.97;5055875;28;46472;-79
2022/08/23 03:46:41;;;;;;;;;1.00;1.00;;;;;23.36;54.93;100723.59;5055594;28;46099;-78
2022/08/23 03:49:07;;;;;;;;;1.00;1.00;;;;;23.36;55.37;100723.59;5055940;28;45620;-76
2022/08/23 03:51:33;;;;;;;;;1.00;0.00;;;;;23.37;55.69;100728.72;5055652;28;45743;-78
2022/08/23 03:53:59;;;;;;;;;0.75;0.75;;;;;23.37;55.08;100734.06;5055120;28;47552;-76
2022/08/23 03:56:28;;;;;;;;;1.00;1.00;;;;;23.31;55.59;100726.00;5055435;28;46309;-76
2022/08/23 03:58:56;;;;;;;;;0.75;0.75;;;;;23.32;55.59;100728.47;5055423;28;45565;-78
2022/08/23 04:04:43;;;;;;;;;0.00;0.00;;;;;23.28;55.53;100734.38;5055112;28;46107;-79
2022/08/23 04:07:08;;;;;;;;;1.00;1.00;;;;;23.35;55.87;100749.50;5055989;28;45885;-79
2022/08/23 04:09:34;;;;;;;;;0.00;0.00;;;;;23.35;55.33;100743.31;5055769;28;45557;-80
2022/08/23 04:11:59;;;;;;;;;1.00;1.00;;;;;23.37;55.98;100762.69;5053989;28;46086;-78
2022/08/23 04:14:25;;;;;;;;;0.75;0.75;;;;;23.36;56.10;100753.00;5055292;28;46532;-81
2022/08/23 04:16:51;;;;;;;;;0.00;0.00;;;;;23.37;56.00;100752.00;5056034;28;45815;-81
2022/08/23 04:19:16;;;;;;;;;0.75;0.00;;;;;23.36;55.87;100761.84;5056734;28;45633;-81
2022/08/23 04:21:47;;;;;;;;;1.00;1.00;;;;;23.30;56.22;100756.44;5056277;28;45779;-78
2022/08/23 04:24:13;;;;;;;;;1.00;1.00;;;;;23.32;56.40;100755.22;5055750;28;46819;-78
2022/08/23 04:26:40;;;;;;;;;2.00;1.00;;;;;23.24;56.41;100752.66;5055006;28;45624;-78
2022/08/23 04:29:05;;;;;;;;;0.75;0.75;;;;;23.27;56.35;100760.28;5055228;28;45660;-79
2022/08/23 04:34:52;;;;;;;;;2.00;1.00;;;;;23.20;56.53;100763.91;5054590;28;46194;-75
2022/08/23 04:37:18;;;;;;;;;1.00;1.00;;;;;23.15;56.65;100758.31;5055023;28;45768;-78
2022/08/23 04:42:28;;;;;;;;;0.75;0.75;;;;;23.10;56.29;100768.72;5054339;28;45557;-79
2022/08/23 04:44:54;;;;;;;;;1.75;1.00;;;;;23.15;56.48;100780.53;5054237;28;46577;-77
2022/08/23 04:47:19;;;;;;;;;1.00;1.00;;;;;23.14;57.03;100781.53;5054586;28;46409;-76
2022/08/23 04:49:45;;;;;;;;;1.00;1.00;;;;;23.06;56.35;100770.09;5054590;28;45566;-77
2022/08/23 04:52:12;;;;;;;;;1.00;1.00;;;;;23.13;56.69;100789.72;5054332;28;45683;-75
2022/08/23 04:54:38;;;;;;;;;0.00;0.00;;;;;23.05;57.00;100773.81;5054046;28;46348;-75
2022/08/23 04:57:03;;;;;;;;;0.75;0.75;;;;;23.06;57.33;100786.97;5054147;28;46889;-78
2022/08/23 04:59:28;;;;;;;;;2.00;1.00;;;;;23.04;57.37;100777.50;5054332;28;45676;-77
2022/08/23 05:05:16;;;;;;;;;1.00;1.00;;;;;22.99;57.40;100786.91;5056248;28;45580;-80
2022/08/23 05:07:41;;;;;;;;;0.00;0.00;;;;;22.98;57.54;100787.91;5063912;28;45985;-81
2022/08/23 05:10:09;;;;;;;;;2.00;1.00;;;;;22.98;57.50;100787.06;5065027;28;45507;-81
2022/08/23 05:12:34;;;;;;;;;1.00;0.75;;;;;23.01;57.11;100797.38;5058898;28;45818;-80
2022/08/23 05:15:00;;;;;;;;;0.00;0.00;;;;;23.02;57.09;100791.88;5054572;28;46522;-81
2022/08/23 05:17:25;;;;;;;;;2.25;1.00;;;;;23.06;56.85;100791.47;5056245;28;46316;-82
2022/08/23 05:19:51;;;;;;;;;2.00;1.50;;;;;23.05;56.85;100787.19;5054760;28;45878;-80
2022/08/23 05:22:17;;;;;;;;;0.25;0.25;;;;;23.09;56.85;100791.13;5057587;28;45677;-81
2022/08/23 05:24:42;;;;;;;;;1.00;1.00;;;;;23.10;56.44;100787.44;5059501;28;45601;-80
2022/08/23 05:27:08;;;;;;;;;1.00;1.00;;;;;23.13;56.49;100782.53;5057071;28;46216;-80
2022/08/23 05:29:34;;;;;;;;;2.75;2.00;;;;;23.19;56.79;100795.16;5056922;28;45594;-77
2022/08/23 05:35:21;;;;;;;;;1.50;1.00;;;;;23.27;56.38;100792.38;5054161;28;46183;-76
2022/08/23 05:37:46;;;;;;;;;2.00;2.00;;;;;23.24;56.41;100784.75;5054114;28;47088;-79
2022/08/23 05:40:13;;;;;;;;;1.00;1.00;;;;;23.27;56.18;100791.53;5054523;28;45533;-76
2022/08/23 05:42:38;;;;;;;;;1.00;1.00;;;;;23.34;57.02;100804.00;5054775;28;45589;-77
2022/08/23 05:45:04;;;;;;;;;1.75;1.75;;;;;23.36;56.75;100809.16;5054507;28;45577;-77
2022/08/23 05:47:29;;;;;;;;;3.50;2.00;;;;;23.35;56.58;100804.81;5054212;28;46114;-78
2022/08/23 05:49:55;;;;;;;;;2.00;2.00;;;;;23.35;57.17;100804.81;5036364;28;45542;-77
2022/08/23 05:52:20;;;;;;;;;11.00;9.50;;;;;23.33;56.96;100794.31;5054094;28;45537;-80
2022/08/23 05:54:46;;;;;;;;;3.00;3.00;;;;;23.33;57.23;100796.16;5054044;28;45558;-78
2022/08/23 05:57:11;;;;;;;;;5.25;4.00;;;;;23.36;57.07;100799.31;5035626;28;45686;-76
2022/08/23 05:59:37;;;;;;;;;6.00;5.25;;;;;23.34;56.83;100795.13;5054296;28;45565;-78
2022/08/23 06:05:24;;;;;;;;;3.25;3.25;;;;;23.36;56.37;100795.78;5054066;28;45524;-80
2022/08/23 06:07:50;;;;;;;;;4.50;4.50;;;;;23.41;56.71;100806.75;5054141;28;45750;-77
2022/08/23 06:10:18;;;;;;;;;3.25;3.25;;;;;23.42;57.20;100795.88;5053660;28;45588;-77
2022/08/23 06:12:43;;;;;;;;;3.00;3.00;;;;;23.44;56.35;100801.03;5054153;28;45664;-82
2022/08/23 06:15:09;;;;;;;;;2.00;2.00;;;;;23.46;57.07;100807.06;5053490;28;46529;-77
2022/08/23 06:17:34;;;;;;;;;3.25;3.25;;;;;23.44;56.70;100801.03;5054112;28;46107;-78
2022/08/23 06:20:00;;;;;;;;;5.00;4.00;;;;;23.50;56.65;100810.16;5056403;28;45765;-74
2022/08/23 06:22:25;;;;;;;;;2.25;2.25;;;;;23.53;56.87;100812.50;5056957;28;45821;-80
2022/08/23 06:24:51;;;;;;;;;2.75;2.75;;;;;23.55;56.72;100813.94;5056543;28;46221;-77
2022/08/23 06:27:16;;;;;;;;;2.50;2.00;;;;;23.58;56.81;100813.59;5056745;28;46928;-78
2022/08/23 06:29:42;;;;;;;;;8.50;7.50;;;;;23.61;56.59;100818.53;5056533;28;45593;-77
2022/08/23 06:35:29;;;;;;;;;2.00;2.00;;;;;23.53;56.61;100797.28;5053820;28;45991;-77
2022/08/23 06:37:54;;;;;;;;;2.75;2.00;;;;;23.68;56.53;100829.31;5053596;28;45850;-82
2022/08/23 06:40:20;;;;;;;;;2.00;2.00;;;;;23.71;56.40;100831.59;5054208;28;45609;-78
2022/08/23 06:42:45;;;;;;;;;4.00;3.50;;;;;23.70;56.14;100821.91;5053676;28;45715;-78
2022/08/23 06:45:11;;;;;;;;;3.00;2.00;;;;;23.74;56.03;100834.75;5053328;28;46343;-80
2022/08/23 06:50:58;;;;;;;;;2.75;2.75;;;;;23.78;55.89;100832.53;5053308;28;45657;-81
2022/08/23 06:53:23;;;;;;;;;3.00;2.00;;;;;23.78;55.78;100822.66;5035504;28;45618;-79
2022/08/23 06:55:57;;;;;;;;;2.25;2.00;;;;;23.81;56.40;100824.09;5053546;28;46728;-78
2022/08/23 06:58:23;;;;;;;;;3.00;2.00;;;;;23.86;56.28;100834.25;5053192;28;45741;-81
2022/08/23 07:00:48;;;;;;;;;2.75;2.00;;;;;23.89;56.09;100834.69;5052937;28;45530;-81
2022/08/23 07:03:13;;;;;;;;;3.75;3.00;;;;;23.91;56.47;100838.03;5053160;28;45887;-79
2022/08/23 07:05:39;;;;;;;;;2.25;2.00;;;;;23.92;56.33;100838.81;5053188;28;46508;-80
2022/08/23 07:08:04;;;;;;;;;3.75;2.25;;;;;23.92;56.46;100836.16;5053776;28;46299;-79
2022/08/23 07:10:29;;;;;;;;;1.25;1.25;;;;;23.93;56.41;100843.16;5056540;28;45719;-81
2022/08/23 07:12:55;;;;;;;;;2.50;2.25;;;;;23.89;56.66;100831.19;5057201;28;45578;-81
2022/08/23 07:15:20;;;;;;;;;3.00;2.25;;;;;23.93;56.25;100837.81;5059993;28;46338;-81
2022/08/23 07:21:07;;;;;;;;;3.25;2.50;;;;;24.01;56.63;100859.13;5057615;28;45614;-77
2022/08/23 07:23:33;;;;;;;;;3.00;2.75;;;;;24.03;56.25;100857.91;5058417;28;45537;-77
2022/08/23 07:26:00;;;;;;;;;3.00;3.00;;;;;24.02;56.60;100845.53;5058662;28;46838;-76
2022/08/23 07:28:27;;;;;;;;;4.00;2.50;;;;;24.09;56.86;100853.63;5057795;28;47264;-77
2022/08/23 07:30:54;;;;;;;;;3.00;3.00;;;;;24.09;56.98;100861.66;5056269;28;45623;-77
2022/08/23 07:33:20;;;;;;;;;2.00;2.00;;;;;24.04;57.29;100845.34;5056157;28;45980;-78
2022/08/23 07:35:49;;;;;;;;;2.00;2.00;;;;;24.13;57.48;100861.09;5056529;28;47277;-80
2022/08/23 07:38:17;;;;;;;;;2.00;2.00;;;;;24.18;56.89;100869.41;5056482;28;46286;-79
2022/08/23 07:40:44;;;;;;;;;2.00;2.00;;;;;24.22;56.97;100868.03;5055900;28;45613;-77
2022/08/23 07:43:10;;;;;;;;;2.00;2.00;;;;;24.26;57.70;100868.47;5056600;28;45720;-79
2022/08/23 07:45:37;;;;;;;;;2.00;2.00;;;;;24.30;56.72;100864.38;5037775;28;47796;-76
2022/08/23 07:51:26;;;;;;;;;3.00;3.00;;;;;24.35;57.13;100866.47;5056403;28;45500;-81
2022/08/23 07:53:52;;;;;;;;;2.00;1.00;;;;;24.34;56.99;100868.34;5056221;28;45704;-79
2022/08/23 07:56:19;;;;;;;;;1.75;1.75;;;;;24.36;57.11;100873.50;5055109;28;45752;-76
2022/08/23 07:58:45;;;;;;;;;1.00;1.00;;;;;24.39;57.43;100875.81;5056286;28;46432;-78
2022/08/23 08:01:21;;;;;;;;;2.00;1.50;;;;;24.40;56.87;100869.44;5021983;28;45672;-77
2022/08/23 08:03:49;;;;;;;;;2.00;2.00;;;;;24.47;57.45;100881.00;5056199;28;45539;-76
2022/08/23 08:06:20;;;;;;;;;1.25;1.25;;;;;24.49;56.94;100873.63;5055798;28;46805;-77
2022/08/23 08:08:47;;;;;;;;;2.00;1.50;;;;;24.51;56.66;100872.38;5056016;28;46240;-77
2022/08/23 08:11:15;;;;;;;;;2.00;1.50;;;;;24.50;57.02;100864.56;5055978;28;45552;-77
2022/08/23 08:13:43;;;;;;;;;3.75;3.00;;;;;24.55;56.47;100871.00;5055651;28;45724;-76
2022/08/23 08:22:23;;;;;;;;;2.50;2.25;;;;;24.67;56.46;100876.63;5055805;28;45516;-77
2022/08/23 08:24:49;;;;;;;;;3.00;2.00;;;;;24.72;56.21;100876.09;5038050;28;45535;-76
2022/08/23 08:27:14;;;;;;;;;3.00;3.00;;;;;24.73;56.08;100867.00;5055438;28;47463;-76
2022/08/23 08:29:42;;;;;;;;;1.75;1.75;;;;;24.76;56.33;100862.09;5055093;28;47961;-76
2022/08/23 08:32:08;;;;;;;;;3.00;3.00;;;;;24.93;55.93;100876.91;5055014;28;45577;-76
2022/08/23 08:34:34;;;;;;;;;2.25;2.00;;;;;24.96;56.03;100870.28;5055639;28;45631;-77
2022/08/23 08:37:00;;;;;;;;;2.00;2.00;;;;;25.10;55.94;100890.00;5055146;28;46713;-77
2022/08/23 08:39:31;;;;;;;;;2.00;2.00;;;;;25.16;55.95;100884.66;5055510;28;47167;-77
2022/08/23 08:42:15;;;;;;;;;3.00;3.00;;;;;25.25;55.66;100888.84;5037226;28;45627;-77
2022/08/23 08:44:48;;;;;;;;;1.00;1.00;;;;;25.32;55.35;100895.06;5055802;28;45583;-78
2022/08/23 08:47:44;;;;;;;;;2.75;2.00;;;;;25.39;55.09;100893.25;5054986;28;45548;-76
2022/08/23 08:50:16;;;;;;;;;3.00;2.75;;;;;25.46;54.81;100899.50;5055275;28;47077;-74
2022/08/23 08:52:46;;;;;;;;;3.00;3.00;;;;;25.52;54.78;100895.19;5054731;28;45661;-76
2022/08/23 08:55:26;;;;;;;;;5.25;4.50;;;;;25.57;54.74;100895.44;5055381;28;45628;-78
2022/08/23 08:57:53;;;;;;;;;2.25;2.25;;;;;25.61;54.41;100895.88;5036928;28;47832;-75
2022/08/23 09:00:27;;;;;;;;;3.00;3.00;;;;;25.61;53.96;100895.88;5037109;28;47458;-77
2022/08/23 09:02:54;;;;;;;;;4.00;4.00;;;;;25.64;54.25;100898.97;5054610;28;45464;-77
2022/08/23 09:05:33;;;;;;;;;3.00;3.00;;;;;25.66;54.60;100896.91;5054941;28;45802;-78
2022/08/23 09:08:39;;;;;;;;;4.25;3.25;;;;;25.70;54.56;100906.22;5038069;28;46384;-79
2022/08/23 09:11:26;;;;;;;;;4.00;4.00;;;;;25.73;54.08;100903.16;5054883;28;46176;-78
2022/08/23 09:14:38;;;;;;;;;3.50;3.00;;;;;25.79;54.41;100901.53;5053774;28;45576;-77
2022/08/23 09:17:37;;;;;;;;;2.00;2.00;;;;;25.82;53.72;100893.88;4993191;28;45817;-76
2022/08/23 09:20:05;;;;;;;;;2.00;2.00;;;;;25.86;53.79;100891.59;4992743;28;47471;-78
2022/08/23 09:22:38;;;;;;;;;4.00;3.75;;;;;25.92;54.03;100894.31;4993063;28;45802;-78
2022/08/23 09:25:06;;;;;;;;;3.50;3.00;;;;;25.89;53.77;100881.31;4992631;28;45706;-78
2022/08/23 09:27:32;;;;;;;;;4.25;4.00;;;;;26.02;53.56;100903.88;4992752;28;45651;-76
2022/08/23 09:30:00;;;;;;;;;5.00;3.00;;;;;26.10;53.72;100903.66;4992872;28;47091;-76
2022/08/23 09:32:33;;;;;;;;;3.00;3.00;;;;;26.14;53.61;100904.91;4991940;28;46965;-77
2022/08/23 09:35:25;;;;;;;;;4.00;3.00;;;;;26.18;53.68;100906.19;4992417;28;45779;-76
2022/08/23 09:38:00;;;;;;;;;4.50;3.00;;;;;26.23;53.34;100903.75;4990233;28;45628;-78
2022/08/23 09:40:35;;;;;;;;;3.00;3.00;;;;;26.27;52.82;100908.50;4992797;28;45575;-77
2022/08/23 09:43:12;;;;;;;;;3.25;3.25;;;;;26.28;53.13;100910.16;4992966;28;46140;-77
2022/08/23 09:45:54;;;;;;;;;4.00;3.25;;;;;26.29;52.96;100909.09;4992608;28;45703;-76
2022/08/23 09:48:41;;;;;;;;;3.00;2.00;;;;;26.33;53.50;100906.03;4992598;28;45584;-77
2022/08/23 09:51:21;;;;;;;;;3.75;3.00;;;;;26.36;53.34;100903.75;4992355;28;46360;-77
2022/08/23 09:54:02;;;;;;;;;2.25;1.50;;;;;26.43;53.02;100909.16;5038295;28;46463;-78
2022/08/23 09:56:32;;;;;;;;;3.00;3.00;;;;;26.46;52.93;100906.88;5055697;28;45587;-76
2022/08/23 09:58:58;;;;;;;;;2.00;2.00;;;;;26.56;53.19;100909.16;5056065;28;45954;-78
2022/08/23 10:01:32;;;;;;;;;2.00;2.00;;;;;26.59;52.59;100893.44;5055346;28;47241;-77
2022/08/23 10:04:12;;;;;;;;;1.00;1.00;;;;;26.65;52.66;100891.78;5054742;28;45608;-77
2022/08/23 10:06:40;;;;;;;;;2.75;2.00;;;;;26.76;52.28;100903.78;5054150;28;45640;-77
2022/08/23 10:09:07;;;;;;;;;3.00;3.00;;;;;26.80;52.46;100899.63;5054447;28;45546;-77
2022/08/23 10:11:39;;;;;;;;;2.00;2.00;;;;;26.84;52.87;100895.50;5053504;28;45684;-76
2022/08/23 10:14:05;;;;;;;;;1.25;1.25;;;;;26.84;52.36;100890.09;5053414;28;46458;-76
2022/08/23 10:20:15;;;;;;;;;2.75;2.50;;;;;26.89;51.78;100888.47;4992210;28;45909;-77
2022/08/23 10:22:57;;;;;;;;;2.00;2.00;;;;;26.87;51.91;100892.41;4991585;28;46580;-76
2022/08/23 10:25:26;;;;;;;;;1.50;1.00;;;;;26.87;52.60;100890.56;4991915;28;46089;-77
2022/08/23 10:31:30;;;;;;;;;1.25;1.00;;;;;26.94;52.95;100885.16;4992104;28;45816;-78
2022/08/23 10:37:53;;;;;;;;;2.00;2.00;;;;;27.06;52.86;100873.56;4991870;28;45864;-77
2022/08/23 10:40:40;;;;;;;;;1.00;1.00;;;;;27.12;51.74;100872.72;4933777;28;45635;-79
2022/08/23 10:43:19;;;;;;;;;0.50;0.50;;;;;27.20;51.26;100879.75;4935748;28;45564;-78
2022/08/23 10:45:48;;;;;;;;;1.00;1.00;;;;;27.25;51.15;100871.03;4936789;28;47440;-79
2022/08/23 10:48:27;;;;;;;;;1.50;1.50;;;;;27.30;51.46;100864.00;4936326;28;46509;-79
2022/08/23 10:51:03;;;;;;;;;1.00;1.00;;;;;27.34;51.14;100859.81;4936157;28;45637;-78
2022/08/23 10:53:38;;;;;;;;;1.00;1.00;;;;;27.39;50.75;100861.88;4936749;28;45754;-79
2022/08/23 10:56:07;;;;;;;;;1.00;1.00;;;;;27.37;51.21;100856.69;4989009;28;46542;-76
2022/08/23 10:58:51;;;;;;;;;3.00;1.00;;;;;27.42;50.76;100858.78;4978636;28;47109;-76
2022/08/23 11:01:20;;;;;;;;;1.00;0.75;;;;;27.41;50.21;100859.81;4994797;28;45603;-77
2022/08/23 11:04:19;;;;;;;;;1.00;1.00;;;;;27.41;50.02;100860.63;4995147;28;45670;-78
2022/08/23 11:06:51;;;;;;;;;3.00;1.25;;;;;27.41;50.14;100862.50;4994651;28;46557;-77
2022/08/23 11:09:17;;;;;;;;;1.00;1.00;;;;;27.41;50.71;100857.94;4994688;28;46458;-78
2022/08/23 11:11:46;;;;;;;;;1.25;1.25;;;;;27.42;49.67;100854.19;4994542;28;45737;-77
2022/08/23 11:14:32;;;;;;;;;0.50;0.50;;;;;27.48;49.84;100850.66;4994740;28;45949;-78
2022/08/23 11:17:04;;;;;;;;;0.00;0.00;;;;;27.53;50.08;100853.56;4992321;28;46434;-77
2022/08/23 11:19:48;;;;;;;;;0.00;0.00;;;;;27.60;49.68;100858.91;5036300;28;46922;-77
2022/08/23 11:22:25;;;;;;;;;0.00;0.00;;;;;27.61;49.24;100849.81;5036349;28;45428;-78
2022/08/23 11:25:01;;;;;;;;;1.00;1.00;;;;;27.62;48.64;100847.94;5036118;28;45568;-79
2022/08/23 11:27:31;;;;;;;;;0.00;0.00;;;;;27.67;49.22;100854.34;5035586;28;46657;-77
2022/08/23 11:30:31;;;;;;;;;1.00;1.00;;;;;27.71;49.06;100847.47;5035389;28;47310;-79
2022/08/23 11:36:22;;;;;;;;;1.75;1.00;;;;;27.71;48.00;100841.25;5035412;28;45730;-79
2022/08/23 11:38:48;;;;;;;;;0.25;0.25;;;;;27.74;48.46;100848.94;5017368;28;47837;-78
2022/08/23 11:41:27;;;;;;;;;0.75;0.75;;;;;27.75;48.09;100850.56;5034825;28;46227;-77
2022/08/23 11:43:55;;;;;;;;;1.00;1.00;;;;;27.76;48.45;100857.59;5035257;28;45761;-76
2022/08/23 11:46:26;;;;;;;;;0.00;0.00;;;;;27.76;47.73;100855.72;5035213;28;45723;-77
2022/08/23 11:52:58;;;;;;;;;1.50;0.75;;;;;27.73;47.31;100852.66;5035157;28;45926;-77
2022/08/23 11:55:58;;;;;;;;;0.00;0.00;;;;;27.75;47.81;100854.06;4973793;28;45637;-78
2022/08/23 11:58:30;;;;;;;;;1.50;1.00;;;;;27.78;47.47;100853.66;4956415;28;45773;-76
2022/08/23 12:01:06;;;;;;;;;0.00;0.00;;;;;27.85;46.92;100848.25;4955327;28;47462;-77
2022/08/23 12:07:00;;;;;;;;;0.00;0.00;;;;;27.93;46.16;100851.50;4954483;28;45835;-78
2022/08/23 12:09:25;;;;;;;;;1.00;1.00;;;;;27.97;46.71;100852.72;4954640;28;45678;-77
2022/08/23 12:11:54;;;;;;;;;1.00;1.00;;;;;28.02;46.37;100851.25;4953349;28;46776;-78
2022/08/23 12:14:31;;;;;;;;;1.00;1.00;;;;;28.07;46.26;100846.03;4964461;28;47285;-76
2022/08/23 12:17:00;;;;;;;;;1.00;1.00;;;;;28.11;46.72;100853.47;4973312;28;45753;-78
2022/08/23 12:22:50;;;;;;;;;0.25;0.25;;;;;28.23;45.74;100840.16;4973187;28;45662;-77
2022/08/23 12:25:19;;;;;;;;;1.00;0.00;;;;;28.26;46.10;100845.91;4956648;28;46256;-78
2022/08/23 12:27:56;;;;;;;;;0.25;0.25;;;;;28.29;45.94;100853.56;4973015;28;45810;-77
2022/08/23 12:30:25;;;;;;;;;1.00;1.00;;;;;28.29;46.01;100844.63;4973011;28;45684;-78
2022/08/23 12:33:05;;;;;;;;;0.00;0.00;;;;;28.29;45.49;100841.94;4973032;28;46626;-77
2022/08/23 12:39:03;;;;;;;;;0.00;0.00;;;;;28.35;45.25;100844.59;5054614;28;45545;-75
2022/08/23 12:41:34;;;;;;;;;1.00;1.00;;;;;28.35;45.65;100847.28;5054477;28;45896;-78
2022/08/23 12:44:05;;;;;;;;;1.00;0.25;;;;;28.37;44.94;100842.53;5054547;28;46509;-78
2022/08/23 12:46:33;;;;;;;;;0.25;0.00;;;;;28.41;45.72;100844.75;5054313;28;47004;-77
2022/08/23 12:49:00;;;;;;;;;1.00;1.00;;;;;28.44;45.55;100842.47;5054495;28;45680;-77
2022/08/23 12:51:25;;;;;;;;;0.00;0.00;;;;;28.47;45.46;100844.72;5054530;28;45810;-77
2022/08/23 12:53:51;;;;;;;;;0.00;0.00;;;;;28.46;44.73;100840.34;5054231;28;45667;-77
2022/08/23 12:56:24;;;;;;;;;1.50;1.00;;;;;28.47;44.32;100851.97;5054369;28;46428;-76
2022/08/23 12:58:52;;;;;;;;;0.00;0.00;;;;;28.48;44.50;100848.22;5054319;28;45692;-77
2022/08/23 13:01:28;;;;;;;;;0.00;0.00;;;;;28.54;44.52;100841.97;5054226;28;46062;-77